Airfield :
LOGIN :

Register | Disclaimer

   EN    FR    IT 

 










Legend :    VFR   Marginal VFR   IFR   Intensive IFR   Very Intensive IFR
Visi :
Ceiling :
>= 8 km
>= 3000ft
5 to 8 km
1000 to 3000 ft
1500m to 5 km
500 to 1000 ft
800 to 1500m
200 to 500 ft
< 800m
< 200 ft
Symbols :   Thunderstorms  Fog  Heavy snow  Heavy precipitations  Wind > 20 kt
SIGMETs :     Misc.  Thunderstorms  Icing  Turbulence  Mountain Waves  Volcanic Ashes







- Airport Elevation : 791 ft
- IATA code : KRK


EPKK - Krakow-Balice

CURRENT METAR :
  • 130130Z 27006KT 9999 SCT010 BKN017 M02/M03 Q1022

EXPIRED METARs :
  • 130100Z 25003KT 220V290 9999 BKN015 M02/M03 Q1022
  • 130030Z 23003KT 9999 BKN012 M01/M03 Q1022
  • 130000Z 26003KT 9999 BKN015 M01/M03 Q1022
  • 122330Z VRB02KT 9999 BKN017 BKN033 M01/M03 Q1022
  • 122300Z 24003KT 9999 SCT010 BKN033 M01/M03 Q1022
  • 122230Z 32004KT 9999 BKN010 M01/M03 Q1022 R25/51//95

TAF TAF EPKK
Valid from the 13 at 00:00 until the 14 at 00:00 UTC


122330Z 1300/1324 32003KT 7000 OVC013
TEMPO 1300/1318 3500 SN BR BKN006 OVC012
BECMG 1310/1313 BKN017
BECMG 1318/1320 BKN011
No reported NOTAMs for that airfield.
1 SIGMET reported for the Warszawa FIR (EPWW) :
 
Severe icing
EPWW SIGMET 1 VALID 130035/130435 EPWA
EPWW WARSAW FIR SEV ICE OBS NE OF LINE N5420 E02000 - N5130 E01920 - N5130 E01920 - N5130 E01920 - N4920 E02130 SFC/FL030 MOV SW NC=



MET'MAP, your aeronautical weather chart ! - Copyright ORBIFLY December 2007 - Disclaimer

ORBIFLY MET'MAP TEAM :

Programming & Development : Alexandra Zaïnal
Concept & Development : Baudouin d'Aumeries
Co-Development & Prog : Marc-Olivier Méhu
Technical & hardware support : Manuel Goepfert

Contact : metmap@orbifly.com




SOURCES & CREDITS :

   NOAA